createdAt,value
2017-12-19T00:01:08.641Z,26.10
2017-12-19T00:03:36.319Z,25.73
2017-12-19T00:06:04.018Z,24.17
2017-12-19T00:08:31.705Z,23.10
2017-12-19T00:10:59.404Z,24.13
2017-12-19T00:13:27.159Z,24.53
2017-12-19T00:15:54.789Z,25.70
2017-12-19T00:18:22.555Z,23.93
2017-12-19T00:20:50.264Z,27.40
2017-12-19T00:23:18.012Z,24.67
2017-12-19T00:25:45.680Z,24.13
2017-12-19T00:28:13.420Z,25.97
2017-12-19T00:30:41.054Z,26.80
2017-12-19T00:33:08.744Z,24.90
2017-12-19T00:35:36.450Z,26.33
2017-12-19T00:38:04.098Z,26.00
2017-12-19T00:40:31.790Z,27.83
2017-12-19T00:42:59.501Z,25.87
2017-12-19T00:45:27.172Z,24.70
2017-12-19T00:47:54.813Z,26.83
2017-12-19T00:50:22.558Z,27.27
2017-12-19T00:52:50.264Z,30.63
2017-12-19T00:55:17.954Z,27.50
2017-12-19T00:57:45.598Z,26.13
2017-12-19T01:00:13.398Z,28.03
2017-12-19T01:02:41.105Z,27.90
2017-12-19T01:05:08.866Z,27.10
2017-12-19T01:07:36.561Z,28.37
2017-12-19T01:10:04.313Z,24.93
2017-12-19T01:12:32.007Z,26.60
2017-12-19T01:14:59.681Z,28.23
2017-12-19T01:17:27.389Z,27.30
2017-12-19T01:19:55.067Z,32.33
2017-12-19T01:22:22.768Z,30.37
2017-12-19T01:24:50.435Z,29.07
2017-12-19T01:27:18.055Z,27.60
2017-12-19T01:29:45.719Z,28.77
2017-12-19T01:32:13.405Z,30.87
2017-12-19T01:34:41.243Z,29.67
2017-12-19T01:37:08.942Z,29.97
2017-12-19T01:39:36.664Z,32.13
2017-12-19T01:42:04.290Z,29.83
2017-12-19T01:44:31.960Z,30.90
2017-12-19T01:46:59.589Z,37.10
2017-12-19T01:49:27.330Z,32.20
2017-12-19T01:51:55.029Z,33.97
2017-12-19T01:54:22.765Z,32.97
2017-12-19T01:56:50.459Z,31.57
2017-12-19T01:59:18.135Z,33.83
2017-12-19T02:01:45.764Z,37.17
2017-12-19T02:04:13.497Z,33.50
2017-12-19T02:06:41.120Z,34.20
2017-12-19T02:09:08.866Z,31.47
2017-12-19T02:11:36.490Z,33.03
2017-12-19T02:14:04.256Z,32.73
2017-12-19T02:16:35.637Z,32.77
2017-12-19T02:19:03.335Z,36.73
2017-12-19T02:21:31.046Z,34.70
2017-12-19T02:23:58.743Z,38.83
2017-12-19T02:26:26.417Z,34.70
2017-12-19T02:28:54.114Z,35.10
2017-12-19T02:31:21.792Z,34.73
2017-12-19T02:33:49.435Z,36.40
2017-12-19T02:36:17.191Z,30.90
2017-12-19T02:38:44.896Z,35.60
2017-12-19T02:41:12.633Z,38.20
2017-12-19T02:43:40.378Z,35.67
2017-12-19T02:46:08.129Z,34.60
2017-12-19T02:48:35.848Z,30.90
2017-12-19T02:51:03.538Z,35.60
2017-12-19T02:53:31.252Z,37.90
2017-12-19T02:55:58.928Z,31.73
2017-12-19T02:58:26.704Z,38.27
2017-12-19T03:00:54.445Z,37.37
2017-12-19T03:03:22.137Z,38.20
2017-12-19T03:05:49.903Z,35.60
2017-12-19T03:08:18.430Z,42.47
2017-12-19T03:10:46.168Z,38.40
2017-12-19T03:13:13.806Z,39.23
2017-12-19T03:15:41.503Z,38.37
2017-12-19T03:18:09.160Z,42.20
2017-12-19T03:20:36.903Z,37.20
2017-12-19T03:23:04.620Z,36.50
2017-12-19T03:25:32.316Z,38.67
2017-12-19T03:28:00.025Z,31.67
2017-12-19T03:30:27.701Z,37.63
2017-12-19T03:32:55.396Z,33.60
2017-12-19T03:35:23.137Z,36.70
2017-12-19T03:37:50.848Z,42.07
2017-12-19T03:40:18.606Z,42.53
2017-12-19T03:42:46.332Z,39.47
2017-12-19T03:45:14.084Z,38.17
2017-12-19T03:47:41.833Z,34.77
2017-12-19T03:50:09.591Z,37.80
2017-12-19T03:52:37.323Z,36.57
2017-12-19T03:55:05.068Z,36.53
2017-12-19T03:57:32.782Z,43.70
2017-12-19T04:00:00.476Z,39.40
2017-12-19T04:02:28.124Z,39.53
2017-12-19T04:04:55.868Z,40.07
2017-12-19T04:07:23.582Z,42.60
2017-12-19T04:09:51.289Z,40.73
2017-12-19T04:12:18.994Z,41.57
2017-12-19T04:14:46.728Z,41.70
2017-12-19T04:17:14.427Z,41.37
2017-12-19T04:19:42.172Z,37.77
2017-12-19T04:22:09.876Z,39.73
2017-12-19T04:24:37.581Z,41.33
2017-12-19T04:27:05.268Z,46.63
2017-12-19T04:29:32.978Z,40.63
2017-12-19T04:32:00.738Z,40.83
2017-12-19T04:34:28.393Z,41.67
2017-12-19T04:36:56.153Z,39.27
2017-12-19T04:39:23.851Z,42.63
2017-12-19T04:41:51.527Z,40.10
2017-12-19T04:44:19.224Z,38.50
2017-12-19T04:46:46.970Z,50.80
2017-12-19T04:49:14.677Z,38.23
2017-12-19T04:51:42.433Z,45.17
2017-12-19T04:54:10.091Z,44.17
2017-12-19T04:56:37.845Z,43.53
2017-12-19T04:59:05.589Z,40.07
2017-12-19T05:01:33.344Z,45.40
2017-12-19T05:04:00.987Z,37.20
2017-12-19T05:06:28.678Z,44.40
2017-12-19T05:08:56.390Z,52.30
2017-12-19T05:11:24.103Z,47.80
2017-12-19T05:13:51.745Z,44.00
2017-12-19T05:16:19.501Z,46.73
2017-12-19T05:18:47.137Z,45.80
2017-12-19T05:21:14.825Z,43.43
2017-12-19T05:23:42.529Z,44.83
2017-12-19T05:26:10.298Z,47.63
2017-12-19T05:28:37.944Z,44.33
2017-12-19T05:31:05.639Z,45.67
2017-12-19T05:33:33.333Z,45.87
2017-12-19T05:36:01.008Z,39.73
2017-12-19T05:38:28.665Z,48.37
2017-12-19T05:40:56.420Z,46.40
2017-12-19T05:43:24.143Z,46.43
2017-12-19T05:45:51.897Z,47.30
2017-12-19T05:48:19.612Z,46.77
2017-12-19T05:50:48.281Z,47.40
2017-12-19T05:53:15.988Z,104.97
2017-12-19T05:55:43.755Z,110.83
2017-12-19T05:58:11.444Z,71.10
2017-12-19T06:00:39.148Z,62.40
2017-12-19T06:03:06.786Z,58.40
2017-12-19T06:05:34.503Z,68.27
2017-12-19T06:08:02.147Z,48.80
2017-12-19T06:10:29.830Z,51.07
2017-12-19T06:12:57.472Z,53.07
2017-12-19T06:15:25.172Z,51.57
2017-12-19T06:18:01.918Z,49.87
2017-12-19T06:20:29.725Z,46.43
2017-12-19T06:22:57.429Z,55.53
2017-12-19T06:25:25.074Z,57.27
2017-12-19T06:27:52.764Z,52.27
2017-12-19T06:30:20.473Z,44.90
2017-12-19T06:32:48.244Z,51.53
2017-12-19T06:35:15.961Z,50.27
2017-12-19T06:37:43.735Z,50.47
2017-12-19T06:40:11.459Z,55.40
2017-12-19T06:42:39.220Z,50.53
2017-12-19T06:45:06.921Z,58.77
2017-12-19T06:47:34.673Z,50.30
2017-12-19T06:50:02.324Z,63.07
2017-12-19T06:52:30.022Z,52.10
2017-12-19T06:54:57.763Z,47.00
2017-12-19T06:57:25.530Z,48.77
2017-12-19T06:59:53.168Z,56.30
2017-12-19T07:02:20.938Z,49.10
2017-12-19T07:04:48.668Z,50.73
2017-12-19T07:07:16.422Z,55.13
2017-12-19T07:09:44.061Z,58.23
2017-12-19T07:12:11.783Z,55.10
2017-12-19T07:14:39.487Z,49.10
2017-12-19T07:17:07.442Z,56.47
2017-12-19T07:19:35.092Z,50.67
2017-12-19T07:22:02.810Z,62.60
2017-12-19T07:24:30.535Z,58.30
2017-12-19T07:26:58.293Z,59.77
2017-12-19T07:29:25.934Z,51.47
2017-12-19T07:31:53.716Z,53.63
2017-12-19T07:34:21.424Z,69.93
2017-12-19T07:36:49.142Z,157.80
2017-12-19T07:39:16.848Z,321.77
2017-12-19T07:41:44.698Z,167.57
2017-12-19T07:44:12.434Z,221.13
2017-12-19T07:46:40.128Z,101.07
2017-12-19T07:49:07.817Z,82.20
2017-12-19T07:51:35.577Z,72.40
2017-12-19T07:54:03.296Z,49.93
2017-12-19T07:56:31.029Z,76.57
2017-12-19T07:58:58.715Z,84.03
2017-12-19T08:01:26.413Z,74.03
2017-12-19T08:03:54.081Z,64.73
2017-12-19T08:06:21.764Z,69.43
2017-12-19T08:08:49.406Z,46.70
2017-12-19T08:11:17.100Z,61.73
2017-12-19T08:13:44.778Z,64.57
2017-12-19T08:16:12.519Z,51.00
2017-12-19T08:18:40.211Z,49.90
2017-12-19T08:21:07.912Z,65.43
2017-12-19T08:23:35.692Z,62.60
2017-12-19T08:26:03.431Z,75.83
2017-12-19T08:28:31.178Z,71.57
2017-12-19T08:30:59.047Z,67.80
2017-12-19T08:33:27.111Z,60.03
2017-12-19T08:35:54.837Z,52.20
2017-12-19T08:38:22.607Z,48.70
2017-12-19T08:40:50.358Z,58.53
2017-12-19T08:43:18.141Z,60.07
2017-12-19T08:45:45.880Z,55.77
2017-12-19T08:48:13.681Z,49.53
2017-12-19T08:50:41.396Z,50.27
2017-12-19T08:53:09.173Z,50.00
2017-12-19T08:55:36.867Z,47.63
2017-12-19T08:58:04.571Z,52.47
2017-12-19T09:00:32.334Z,55.23
2017-12-19T09:03:00.099Z,51.80
2017-12-19T09:05:27.809Z,55.93
2017-12-19T09:07:55.557Z,45.93
2017-12-19T09:10:23.271Z,43.67
2017-12-19T09:12:51.021Z,48.97
2017-12-19T09:15:18.771Z,41.73
2017-12-19T09:17:46.516Z,47.03
2017-12-19T09:20:14.229Z,40.93
2017-12-19T09:22:41.971Z,40.90
2017-12-19T09:25:09.694Z,42.43
2017-12-19T09:27:37.385Z,41.47
2017-12-19T09:30:05.092Z,41.50
2017-12-19T09:32:32.850Z,36.70
2017-12-19T09:35:00.564Z,42.17
2017-12-19T09:37:28.310Z,43.33
2017-12-19T09:39:56.020Z,35.50
2017-12-19T09:42:23.846Z,47.67
2017-12-19T09:44:51.560Z,44.80
2017-12-19T09:47:19.329Z,41.23
2017-12-19T09:49:47.032Z,36.73
2017-12-19T09:52:14.799Z,40.27
2017-12-19T09:54:42.501Z,33.70
2017-12-19T09:57:10.247Z,33.73
2017-12-19T09:59:37.996Z,33.17
2017-12-19T10:02:05.759Z,33.03
2017-12-19T10:04:33.488Z,33.77
2017-12-19T10:07:01.197Z,37.70
2017-12-19T10:09:28.960Z,37.63
2017-12-19T10:11:56.662Z,31.40
2017-12-19T10:14:24.410Z,34.67
2017-12-19T10:16:52.099Z,35.80
2017-12-19T10:19:19.872Z,38.13
2017-12-19T10:21:47.621Z,37.87
2017-12-19T10:24:15.420Z,35.30
2017-12-19T10:26:43.142Z,34.57
2017-12-19T10:29:10.942Z,35.77
2017-12-19T10:31:38.661Z,36.17
2017-12-19T10:34:06.426Z,32.30
2017-12-19T10:36:34.165Z,28.50
2017-12-19T10:39:01.946Z,25.20
2017-12-19T10:41:29.579Z,27.40
2017-12-19T10:43:57.263Z,31.63
2017-12-19T10:46:24.949Z,31.40
2017-12-19T10:48:52.714Z,29.07
2017-12-19T10:51:20.436Z,28.07
2017-12-19T10:53:48.183Z,30.33
2017-12-19T10:56:15.905Z,34.97
2017-12-19T10:58:43.685Z,33.27
2017-12-19T11:01:11.419Z,41.17
2017-12-19T11:03:39.169Z,36.70
2017-12-19T11:06:07.110Z,38.50
2017-12-19T11:08:35.025Z,34.73
2017-12-19T11:11:02.816Z,37.90
2017-12-19T11:13:30.792Z,35.57
2017-12-19T11:15:58.595Z,37.93
2017-12-19T11:18:26.667Z,34.07
2017-12-19T11:20:54.388Z,40.43
2017-12-19T11:23:22.191Z,39.67
2017-12-19T11:25:49.944Z,34.63
2017-12-19T11:28:17.741Z,34.40
2017-12-19T11:30:45.485Z,37.87
2017-12-19T11:33:13.231Z,37.30
2017-12-19T11:35:40.983Z,37.70
2017-12-19T11:38:08.725Z,32.97
2017-12-19T11:40:36.445Z,40.17
2017-12-19T11:43:04.191Z,41.93
2017-12-19T11:45:31.903Z,38.43
2017-12-19T11:47:59.590Z,41.53
2017-12-19T11:50:27.295Z,42.20
2017-12-19T11:52:55.059Z,33.03
2017-12-19T11:55:22.785Z,40.97
2017-12-19T11:57:50.522Z,39.60
2017-12-19T12:00:18.206Z,31.90
2017-12-19T12:02:45.843Z,37.80
2017-12-19T12:05:13.522Z,33.37
2017-12-19T12:07:41.161Z,44.20
2017-12-19T12:10:08.867Z,49.80
2017-12-19T12:12:36.500Z,45.90
2017-12-19T12:15:04.276Z,44.93
2017-12-19T12:17:31.982Z,30.77
2017-12-19T12:19:59.780Z,39.87
2017-12-19T12:22:27.506Z,90.37
2017-12-19T12:24:55.266Z,29.43
2017-12-19T12:27:23.002Z,37.27
2017-12-19T12:29:50.692Z,35.87
2017-12-19T12:32:18.423Z,45.23
2017-12-19T12:34:46.171Z,30.17
2017-12-19T12:37:13.906Z,34.00
2017-12-19T12:39:41.650Z,35.70
2017-12-19T12:42:09.373Z,41.97
2017-12-19T12:44:37.143Z,31.63
2017-12-19T12:47:04.885Z,36.53
2017-12-19T12:49:32.629Z,29.67
2017-12-19T12:52:00.324Z,29.03
2017-12-19T12:54:28.056Z,26.53
2017-12-19T12:56:55.690Z,36.13
2017-12-19T12:59:23.380Z,26.33
2017-12-19T13:01:51.104Z,39.30
2017-12-19T13:04:18.896Z,27.00
2017-12-19T13:06:46.605Z,26.87
2017-12-19T13:09:14.388Z,29.53
2017-12-19T13:11:42.120Z,37.30
2017-12-19T13:14:09.828Z,36.90
2017-12-19T13:16:37.693Z,28.37
2017-12-19T13:19:05.405Z,36.83
2017-12-19T13:21:33.135Z,27.63
2017-12-19T13:24:00.880Z,46.00
2017-12-19T13:26:28.640Z,31.33
2017-12-19T13:28:56.351Z,26.27
2017-12-19T13:31:24.098Z,39.90
2017-12-19T13:33:51.821Z,32.00
2017-12-19T13:36:19.564Z,35.87
2017-12-19T13:38:47.271Z,37.70
2017-12-19T13:41:15.031Z,36.87
2017-12-19T13:43:42.763Z,30.47
2017-12-19T13:46:10.518Z,30.53
2017-12-19T13:48:38.216Z,35.23
2017-12-19T13:51:06.066Z,32.20
2017-12-19T13:53:33.775Z,34.00
2017-12-19T13:56:01.524Z,44.37
2017-12-19T13:58:29.276Z,36.17
2017-12-19T14:00:57.020Z,34.23
2017-12-19T14:03:24.711Z,29.00
2017-12-19T14:05:52.449Z,41.30
2017-12-19T14:08:20.313Z,44.53
2017-12-19T14:10:48.191Z,33.70
2017-12-19T14:13:16.010Z,47.80
2017-12-19T14:15:43.925Z,36.40
2017-12-19T14:18:11.629Z,45.47
2017-12-19T14:20:39.573Z,32.37
2017-12-19T14:23:07.336Z,37.60
2017-12-19T14:25:35.101Z,45.20
2017-12-19T14:28:02.805Z,40.53
2017-12-19T14:30:30.580Z,40.47
2017-12-19T14:32:58.223Z,27.37
2017-12-19T14:35:25.965Z,35.03
2017-12-19T14:37:53.674Z,35.70
2017-12-19T14:40:21.428Z,31.20
2017-12-19T14:42:49.142Z,32.90
2017-12-19T14:45:16.900Z,32.17
2017-12-19T14:47:44.596Z,36.87
2017-12-19T14:50:12.288Z,30.20
2017-12-19T14:52:40.017Z,40.03
2017-12-19T14:55:07.734Z,37.50
2017-12-19T14:57:35.469Z,32.07
2017-12-19T15:00:03.253Z,34.40
2017-12-19T15:02:30.995Z,38.97
2017-12-19T15:04:58.692Z,35.30
2017-12-19T15:07:26.433Z,28.80
2017-12-19T15:09:55.032Z,32.30
2017-12-19T15:12:22.800Z,34.97
2017-12-19T15:14:50.502Z,31.13
2017-12-19T15:17:18.264Z,38.93
2017-12-19T15:19:45.964Z,38.30
2017-12-19T15:22:13.709Z,41.43
2017-12-19T15:24:41.409Z,34.13
2017-12-19T15:27:09.165Z,31.40
2017-12-19T15:29:36.879Z,44.10
2017-12-19T15:32:04.670Z,36.73
2017-12-19T15:34:32.365Z,42.27
2017-12-19T15:37:00.101Z,45.93
2017-12-19T15:39:27.811Z,42.90
2017-12-19T15:41:55.602Z,48.93
2017-12-19T15:44:23.296Z,45.17
2017-12-19T15:46:51.070Z,47.77
2017-12-19T15:49:18.792Z,45.00
2017-12-19T15:51:46.532Z,46.30
2017-12-19T15:54:14.231Z,43.93
2017-12-19T15:56:42.219Z,43.60
2017-12-19T15:59:10.042Z,38.70
2017-12-19T16:01:37.910Z,45.37
2017-12-19T16:04:05.746Z,41.60
2017-12-19T16:06:33.480Z,46.17
2017-12-19T16:09:01.176Z,52.27
2017-12-19T16:11:28.924Z,39.50
2017-12-19T16:13:56.675Z,59.43
2017-12-19T16:16:24.406Z,44.53
2017-12-19T16:18:52.146Z,45.67
2017-12-19T16:21:19.875Z,46.53
2017-12-19T16:23:47.508Z,42.13
2017-12-19T16:26:15.192Z,47.60
2017-12-19T16:28:42.841Z,40.47
2017-12-19T16:31:10.581Z,59.53
2017-12-19T16:33:38.283Z,47.80
2017-12-19T16:36:05.996Z,38.50
2017-12-19T16:38:33.687Z,57.13
2017-12-19T16:41:01.321Z,44.23
2017-12-19T16:43:29.057Z,70.50
2017-12-19T16:45:56.709Z,78.07
2017-12-19T16:48:24.462Z,54.23
2017-12-19T16:50:52.188Z,50.40
2017-12-19T16:53:19.939Z,61.37
2017-12-19T16:55:47.643Z,56.50
2017-12-19T16:58:15.385Z,47.70
2017-12-19T17:00:43.134Z,60.80
2017-12-19T17:03:10.911Z,55.57
2017-12-19T17:05:38.618Z,41.33
2017-12-19T17:08:06.308Z,58.77
2017-12-19T17:10:34.113Z,65.83
2017-12-19T17:13:01.794Z,57.57
2017-12-19T17:15:29.417Z,59.80
2017-12-19T17:17:57.123Z,61.27
2017-12-19T17:20:24.756Z,58.87
2017-12-19T17:22:52.446Z,79.60
2017-12-19T17:25:20.084Z,77.20
2017-12-19T17:27:47.772Z,67.00
2017-12-19T17:30:15.454Z,84.63
2017-12-19T17:32:43.144Z,448.53
2017-12-19T17:35:10.777Z,413.97
2017-12-19T17:37:38.496Z,357.87
2017-12-19T17:40:06.263Z,316.10
2017-12-19T17:42:34.016Z,187.87
2017-12-19T17:45:01.703Z,135.43
2017-12-19T17:47:29.432Z,84.17
2017-12-19T17:49:57.143Z,49.63
2017-12-19T17:52:24.955Z,232.97
2017-12-19T17:54:52.653Z,209.70
2017-12-19T17:57:20.342Z,281.83
2017-12-19T17:59:47.980Z,302.00
2017-12-19T18:02:15.691Z,330.00
2017-12-19T18:04:43.340Z,180.70
2017-12-19T18:07:11.040Z,125.73
2017-12-19T18:09:38.680Z,196.60
2017-12-19T18:12:06.365Z,178.27
2017-12-19T18:14:34.037Z,373.07
2017-12-19T18:17:01.686Z,362.33
2017-12-19T18:19:29.372Z,289.90
2017-12-19T18:21:57.055Z,234.57
2017-12-19T18:24:24.787Z,308.13
2017-12-19T18:26:52.454Z,141.03
2017-12-19T18:29:20.206Z,169.70
2017-12-19T18:31:47.870Z,257.83
2017-12-19T18:34:15.556Z,257.67
2017-12-19T18:36:43.194Z,260.40
2017-12-19T18:39:10.911Z,378.60
2017-12-19T18:41:38.543Z,91.53
2017-12-19T18:44:06.236Z,53.30
2017-12-19T18:46:33.928Z,138.33
2017-12-19T18:49:01.601Z,67.03
2017-12-19T18:51:29.244Z,100.50
2017-12-19T18:53:56.923Z,109.07
2017-12-19T18:56:24.614Z,150.27
2017-12-19T18:58:52.368Z,125.60
2017-12-19T19:01:20.007Z,88.57
2017-12-19T19:03:47.687Z,58.87
2017-12-19T19:06:15.325Z,56.63
2017-12-19T19:08:42.994Z,47.13
2017-12-19T19:11:10.641Z,48.13
2017-12-19T19:13:38.366Z,47.23
2017-12-19T19:16:06.055Z,36.87
2017-12-19T19:18:33.751Z,47.43
2017-12-19T19:21:01.408Z,30.97
2017-12-19T19:23:29.094Z,54.27
2017-12-19T19:25:56.803Z,53.27
2017-12-19T19:28:24.501Z,38.10
2017-12-19T19:30:52.242Z,41.30
2017-12-19T19:33:19.999Z,191.27
2017-12-19T19:35:47.760Z,91.87
2017-12-19T19:38:15.492Z,71.73
2017-12-19T19:40:43.264Z,98.83
2017-12-19T19:43:11.005Z,98.93
2017-12-19T19:45:38.748Z,198.57
2017-12-19T19:48:06.549Z,96.20
2017-12-19T19:50:34.355Z,109.40
2017-12-19T19:53:02.134Z,113.87
2017-12-19T19:55:29.961Z,46.17
2017-12-19T19:57:57.668Z,120.77
2017-12-19T20:00:25.418Z,87.70
2017-12-19T20:02:53.191Z,54.93
2017-12-19T20:05:20.899Z,40.70
2017-12-19T20:07:48.676Z,105.53
2017-12-19T20:10:16.415Z,38.37
2017-12-19T20:12:44.395Z,105.47
2017-12-19T20:15:12.129Z,94.10
2017-12-19T20:17:39.851Z,86.67
2017-12-19T20:20:07.610Z,81.97
2017-12-19T20:22:35.248Z,70.57
2017-12-19T20:25:02.987Z,82.23
2017-12-19T20:27:30.801Z,68.00
2017-12-19T20:29:58.613Z,80.67
2017-12-19T20:32:26.326Z,84.30
2017-12-19T20:34:54.086Z,99.30
2017-12-19T20:37:21.824Z,107.70
2017-12-19T20:39:50.764Z,96.20
2017-12-19T20:42:18.566Z,102.27
2017-12-19T20:44:46.306Z,128.13
2017-12-19T20:47:14.050Z,93.97
2017-12-19T20:49:42.070Z,130.50
2017-12-19T20:52:09.759Z,130.40
2017-12-19T20:54:37.450Z,115.77
2017-12-19T20:57:05.164Z,89.67
2017-12-19T20:59:32.905Z,106.33
2017-12-19T21:02:00.630Z,269.23
2017-12-19T21:04:28.373Z,538.03
2017-12-19T21:06:56.132Z,326.93
2017-12-19T21:09:23.837Z,378.03
2017-12-19T21:11:51.540Z,216.10
2017-12-19T21:14:19.281Z,375.53
2017-12-19T21:16:46.983Z,280.20
2017-12-19T21:19:14.682Z,366.93
2017-12-19T21:21:42.379Z,497.23
2017-12-19T21:24:10.199Z,426.60
2017-12-19T21:26:37.974Z,434.80
2017-12-19T21:29:05.726Z,276.33
2017-12-19T21:31:33.509Z,366.70
2017-12-19T21:34:01.244Z,336.90
2017-12-19T21:36:29.021Z,406.93
2017-12-19T21:38:56.703Z,435.63
2017-12-19T21:41:24.434Z,64.77
2017-12-19T21:43:52.233Z,401.43
2017-12-19T21:46:19.973Z,190.83
2017-12-19T21:48:47.706Z,165.10
2017-12-19T21:51:15.472Z,331.83
2017-12-19T21:53:43.257Z,419.43
2017-12-19T21:56:10.974Z,59.77
2017-12-19T21:58:38.732Z,162.77
2017-12-19T22:01:06.540Z,158.73
2017-12-19T22:03:34.324Z,224.70
2017-12-19T22:06:08.442Z,482.13
2017-12-19T22:08:36.213Z,200.67
2017-12-19T22:11:03.994Z,237.07
2017-12-19T22:13:31.737Z,329.80
2017-12-19T22:15:59.505Z,457.33
2017-12-19T22:18:27.257Z,266.23
2017-12-19T22:20:55.006Z,64.70
2017-12-19T22:23:22.717Z,37.73
2017-12-19T22:25:50.410Z,57.47
2017-12-19T22:28:18.202Z,169.67
2017-12-19T22:30:46.035Z,113.17
2017-12-19T22:33:13.777Z,165.10
2017-12-19T22:35:41.573Z,89.60
2017-12-19T22:38:09.389Z,70.03
2017-12-19T22:40:37.191Z,214.60
2017-12-19T22:43:05.015Z,191.00
2017-12-19T22:45:32.830Z,98.97
2017-12-19T22:48:00.555Z,77.40
2017-12-19T22:50:28.359Z,337.90
2017-12-19T22:52:56.108Z,264.37
2017-12-19T22:55:23.892Z,233.47
2017-12-19T22:57:51.645Z,163.93
2017-12-19T23:00:19.736Z,64.10
2017-12-19T23:02:47.533Z,86.10
2017-12-19T23:05:15.320Z,119.90
2017-12-19T23:07:43.146Z,146.97
2017-12-19T23:10:10.880Z,90.63
2017-12-19T23:12:38.652Z,54.53
2017-12-19T23:15:06.421Z,119.63
2017-12-19T23:17:34.171Z,330.27
2017-12-19T23:20:01.907Z,81.10
2017-12-19T23:22:29.736Z,86.30
2017-12-19T23:24:57.519Z,151.70
2017-12-19T23:27:25.256Z,268.87
2017-12-19T23:29:53.035Z,238.97
2017-12-19T23:32:20.856Z,109.80
2017-12-19T23:34:48.670Z,119.57
2017-12-19T23:37:16.388Z,131.10
2017-12-19T23:39:44.178Z,143.80
2017-12-19T23:42:11.938Z,298.47
2017-12-19T23:44:39.683Z,259.30
2017-12-19T23:47:07.458Z,468.57
2017-12-19T23:49:35.133Z,393.37
2017-12-19T23:52:02.817Z,175.47
2017-12-19T23:54:30.569Z,232.47
2017-12-19T23:56:58.336Z,210.40
2017-12-19T23:59:26.156Z,129.73
